Time;durP1;ratioP1;P1;durP2;ratioP2;P2;SDS_P1;SDS_P2;PMS_P1;PMS_P2;Temp;Humidity;BMP_temperature;BMP_pressure;BME280_temperature;BME280_humidity;BME280_pressure;Samples;Min_cycle;Max_cycle;Signal;HPM_P1;HPM_P2
2023/06/19 00:02:01;;;;;;;18.35;9.23;;;25.10;64.30;;;;;;5051907;28;20029;-74
2023/06/19 00:04:27;;;;;;;18.25;8.82;;;25.10;64.40;;;;;;5052102;28;20108;-71
2023/06/19 00:06:53;;;;;;;14.38;8.98;;;25.20;63.80;;;;;;5051749;28;20045;-73
2023/06/19 00:09:19;;;;;;;13.77;9.15;;;25.20;63.60;;;;;;5054037;28;20071;-73
2023/06/19 00:11:45;;;;;;;13.93;8.85;;;25.10;63.10;;;;;;5058144;28;20103;-73
2023/06/19 00:14:11;;;;;;;14.75;9.15;;;25.10;63.10;;;;;;5058421;28;20108;-74
2023/06/19 00:16:36;;;;;;;14.57;8.73;;;25.10;63.00;;;;;;5058225;28;20055;-73
2023/06/19 00:19:03;;;;;;;16.15;9.13;;;25.20;62.70;;;;;;5058452;28;20048;-71
2023/06/19 00:21:29;;;;;;;13.45;8.52;;;25.10;62.50;;;;;;5058310;28;20028;-73
2023/06/19 00:23:55;;;;;;;15.02;8.50;;;25.10;62.30;;;;;;5058170;28;20064;-73
2023/06/19 00:26:25;;;;;;;17.30;8.55;;;25.10;61.70;;;;;;5045894;28;20131;-73
2023/06/19 00:28:53;;;;;;;18.92;9.27;;;25.10;61.90;;;;;;5038233;28;20075;-73
2023/06/19 00:31:19;;;;;;;13.57;8.60;;;25.10;62.20;;;;;;5038560;28;20036;-73
2023/06/19 00:33:47;;;;;;;15.43;9.63;;;25.10;62.00;;;;;;5038217;28;20029;-73
2023/06/19 00:36:15;;;;;;;15.10;9.35;;;25.00;62.40;;;;;;5038165;28;20479;-73
2023/06/19 00:38:41;;;;;;;13.20;8.98;;;25.00;62.90;;;;;;5038030;28;20498;-74
2023/06/19 00:41:07;;;;;;;15.25;9.68;;;24.90;62.80;;;;;;5038217;28;20496;-74
2023/06/19 00:43:34;;;;;;;12.05;9.15;;;24.90;63.00;;;;;;5038185;28;20029;-73
2023/06/19 00:46:00;;;;;;;17.35;9.50;;;24.80;62.90;;;;;;5038149;28;20058;-73
2023/06/19 00:48:28;;;;;;;14.85;9.20;;;24.90;62.90;;;;;;5037632;28;20044;-73
2023/06/19 00:50:54;;;;;;;15.07;9.05;;;24.90;62.70;;;;;;5038138;28;20033;-74
2023/06/19 00:53:20;;;;;;;14.55;8.77;;;24.90;62.90;;;;;;5038225;28;20030;-73
2023/06/19 00:55:48;;;;;;;12.52;9.15;;;24.80;62.30;;;;;;5038091;28;20473;-73
2023/06/19 00:58:15;;;;;;;18.27;9.55;;;24.80;62.50;;;;;;5037514;28;20034;-74
2023/06/19 01:00:40;;;;;;;12.60;9.88;;;24.80;62.50;;;;;;5037648;28;20041;-73
2023/06/19 01:03:06;;;;;;;14.57;9.25;;;24.80;62.40;;;;;;5037732;28;20023;-73
2023/06/19 01:05:33;;;;;;;14.68;10.00;;;24.80;62.30;;;;;;5037653;28;20049;-73
2023/06/19 01:08:31;;;;;;;14.93;10.95;;;24.80;62.50;;;;;;5037668;28;20038;-73
2023/06/19 01:11:00;;;;;;;17.83;11.15;;;24.70;62.80;;;;;;5037634;28;20026;-73
2023/06/19 01:13:44;;;;;;;15.50;10.27;;;24.70;63.30;;;;;;5037415;28;20139;-75
2023/06/19 01:16:10;;;;;;;;;;;24.50;63.10;;;;;;5038145;28;20069;-73
2023/06/19 01:18:37;;;;;;;15.32;10.27;;;24.40;64.40;;;;;;5037566;28;19905;-73
2023/06/19 01:21:17;;;;;;;12.85;9.25;;;24.30;63.60;;;;;;5035169;28;20044;-73
2023/06/19 01:23:43;;;;;;;13.18;9.73;;;24.30;63.70;;;;;;5034562;28;20030;-74
2023/06/19 01:26:10;;;;;;;18.55;10.38;;;24.20;64.20;;;;;;5034248;28;20087;-74
2023/06/19 01:28:37;;;;;;;12.93;9.70;;;24.10;64.20;;;;;;5034674;28;20053;-73
2023/06/19 01:31:18;;;;;;;13.60;9.45;;;24.10;64.40;;;;;;5034653;28;20026;-73
2023/06/19 01:33:45;;;;;;;16.05;9.15;;;24.10;64.10;;;;;;5034142;28;20549;-74
2023/06/19 01:36:12;;;;;;;17.00;9.02;;;24.10;64.60;;;;;;5034392;28;20495;-73
2023/06/19 01:38:39;;;;;;;14.13;9.02;;;24.00;64.60;;;;;;5034695;28;20739;-73
2023/06/19 01:41:08;;;;;;;15.93;8.63;;;23.90;64.70;;;;;;5034703;28;20064;-74
2023/06/19 01:43:33;;;;;;;11.38;8.45;;;24.00;64.80;;;;;;5034364;28;20041;-74
2023/06/19 01:46:00;;;;;;;13.50;8.77;;;24.00;64.80;;;;;;5034165;28;20171;-74
2023/06/19 01:48:26;;;;;;;10.25;8.23;;;24.00;64.80;;;;;;5033907;28;20136;-73
2023/06/19 01:50:52;;;;;;;12.82;7.82;;;23.90;65.10;;;;;;5034023;28;20069;-73
2023/06/19 01:53:18;;;;;;;14.70;8.27;;;23.90;65.30;;;;;;5034283;28;20026;-75
2023/06/19 01:55:44;;;;;;;12.55;8.05;;;23.80;65.20;;;;;;5033808;28;20421;-72
2023/06/19 01:58:09;;;;;;;16.50;9.02;;;23.80;65.50;;;;;;5034045;28;20495;-73
2023/06/19 02:00:35;;;;;;;12.27;7.93;;;23.80;65.50;;;;;;5033927;28;20041;-72
2023/06/19 02:03:01;;;;;;;13.65;7.97;;;23.80;65.90;;;;;;5034036;28;20042;-73
2023/06/19 02:05:27;;;;;;;13.38;8.20;;;23.80;65.90;;;;;;5033870;28;20104;-69
2023/06/19 02:07:53;;;;;;;11.50;8.45;;;23.80;66.00;;;;;;5015978;28;20101;-73
2023/06/19 02:10:18;;;;;;;12.60;8.23;;;23.80;66.10;;;;;;5033862;28;20096;-73
2023/06/19 02:12:44;;;;;;;13.48;8.32;;;23.80;66.10;;;;;;5033730;28;20048;-72
2023/06/19 02:15:10;;;;;;;11.60;8.18;;;23.80;66.30;;;;;;5033784;28;20040;-73
2023/06/19 02:17:35;;;;;;;11.40;8.27;;;23.80;67.20;;;;;;5033893;28;20030;-73
2023/06/19 02:20:01;;;;;;;13.35;7.97;;;23.70;66.60;;;;;;5034270;28;20033;-73
2023/06/19 02:22:27;;;;;;;12.93;8.15;;;23.70;66.80;;;;;;5033989;28;20117;-72
2023/06/19 02:24:53;;;;;;;14.93;8.00;;;23.70;66.90;;;;;;5033208;28;20112;-72
2023/06/19 02:27:19;;;;;;;12.43;8.13;;;23.60;66.80;;;;;;5033476;28;20037;-73
2023/06/19 02:29:44;;;;;;;11.25;8.07;;;23.70;67.10;;;;;;5033300;28;20450;-73
2023/06/19 02:32:11;;;;;;;12.52;7.80;;;23.80;67.10;;;;;;5033217;28;20041;-73
2023/06/19 02:34:36;;;;;;;12.32;8.25;;;23.70;66.90;;;;;;5033236;28;20121;-72
2023/06/19 02:37:02;;;;;;;15.13;7.93;;;23.80;67.30;;;;;;5033268;28;20109;-73
2023/06/19 02:39:29;;;;;;;12.45;8.20;;;23.80;67.30;;;;;;5033688;28;20045;-73
2023/06/19 02:41:54;;;;;;;11.05;7.43;;;23.70;67.80;;;;;;5033254;28;20034;-72
2023/06/19 02:44:20;;;;;;;13.02;8.20;;;23.70;67.60;;;;;;5033041;28;20522;-72
2023/06/19 02:46:46;;;;;;;11.88;7.90;;;23.70;67.70;;;;;;5032656;28;20120;-73
2023/06/19 02:49:11;;;;;;;12.77;8.10;;;23.70;68.10;;;;;;5032803;28;20451;-72
2023/06/19 02:51:37;;;;;;;12.18;8.25;;;23.70;68.30;;;;;;5032853;28;20053;-73
2023/06/19 02:54:03;;;;;;;13.40;8.10;;;23.70;68.20;;;;;;5033007;28;20029;-74
2023/06/19 02:56:28;;;;;;;11.52;8.63;;;23.70;68.20;;;;;;5032669;28;20087;-72
2023/06/19 02:58:54;;;;;;;13.10;8.32;;;23.60;68.40;;;;;;5033427;28;20037;-73
2023/06/19 03:01:20;;;;;;;12.68;8.73;;;23.60;68.70;;;;;;5032847;28;20415;-74
2023/06/19 03:03:46;;;;;;;13.57;9.13;;;23.60;68.60;;;;;;5032606;28;20034;-72
2023/06/19 03:06:13;;;;;;;11.07;8.57;;;23.60;68.80;;;;;;5032648;28;20437;-72
2023/06/19 03:08:39;;;;;;;12.20;8.73;;;23.50;68.90;;;;;;5032545;28;20029;-73
2023/06/19 03:11:05;;;;;;;11.90;8.68;;;23.50;69.10;;;;;;5032720;28;20045;-74
2023/06/19 03:13:51;;;;;;;11.32;9.10;;;23.50;69.30;;;;;;5032392;28;20085;-74
2023/06/19 03:16:17;;;;;;;13.73;9.10;;;23.40;69.30;;;;;;5032287;28;20141;-74
2023/06/19 03:18:46;;;;;;;12.82;9.98;;;23.40;69.40;;;;;;5032359;28;20025;-73
2023/06/19 03:21:15;;;;;;;12.25;8.85;;;23.40;69.50;;;;;;5032730;28;20033;-73
2023/06/19 03:23:41;;;;;;;13.35;9.35;;;23.40;69.70;;;;;;5032261;28;20044;-73
2023/06/19 03:26:07;;;;;;;14.07;8.93;;;23.30;69.60;;;;;;5032206;28;20434;-72
2023/06/19 03:28:34;;;;;;;13.50;9.00;;;23.30;69.80;;;;;;5032527;28;20041;-72
2023/06/19 03:31:00;;;;;;;14.90;9.45;;;23.20;70.00;;;;;;5032075;28;20033;-72
2023/06/19 03:33:26;;;;;;;12.18;8.25;;;23.10;70.10;;;;;;5032203;28;20056;-73
2023/06/19 03:35:52;;;;;;;14.93;8.68;;;23.10;70.00;;;;;;5032147;28;20467;-73
2023/06/19 03:38:17;;;;;;;15.13;8.60;;;23.10;70.00;;;;;;5032012;28;20468;-72
2023/06/19 03:40:43;;;;;;;10.57;7.57;;;23.00;70.00;;;;;;5031840;28;20025;-73
2023/06/19 03:43:09;;;;;;;12.88;8.35;;;22.90;70.10;;;;;;5031897;28;20038;-73
2023/06/19 03:45:34;;;;;;;11.07;9.00;;;23.10;70.10;;;;;;5013619;28;20041;-73
2023/06/19 03:48:00;;;;;;;15.93;8.13;;;23.10;69.90;;;;;;5032727;28;20051;-73
2023/06/19 03:50:25;;;;;;;13.05;8.32;;;23.10;70.00;;;;;;5032192;28;20472;-73
2023/06/19 03:52:51;;;;;;;10.27;7.80;;;23.10;69.90;;;;;;5032034;28;20031;-73
2023/06/19 03:55:17;;;;;;;13.43;8.15;;;23.10;69.80;;;;;;5014088;28;20103;-72
2023/06/19 03:57:43;;;;;;;11.00;7.82;;;23.20;69.60;;;;;;5031643;28;20033;-72
2023/06/19 04:00:11;;;;;;;11.25;8.00;;;23.30;69.80;;;;;;5031781;28;20037;-74
2023/06/19 04:02:36;;;;;;;13.27;8.40;;;23.30;69.10;;;;;;5031772;28;20160;-73
2023/06/19 04:05:03;;;;;;;12.40;8.25;;;23.30;68.90;;;;;;5031855;28;20125;-72
2023/06/19 04:07:29;;;;;;;11.27;7.85;;;23.30;68.90;;;;;;5031926;28;20499;-73
2023/06/19 04:09:55;;;;;;;12.60;7.40;;;23.20;68.60;;;;;;5031504;28;20393;-72
2023/06/19 04:12:21;;;;;;;12.40;7.45;;;23.10;68.60;;;;;;5031612;28;20033;-74
2023/06/19 04:14:46;;;;;;;10.32;7.78;;;23.10;68.80;;;;;;5031517;28;20654;-72
2023/06/19 04:17:13;;;;;;;10.45;8.25;;;23.00;68.70;;;;;;5031845;28;20033;-73
2023/06/19 04:19:39;;;;;;;11.02;7.70;;;23.00;69.10;;;;;;5031364;28;20121;-73
2023/06/19 04:22:04;;;;;;;11.02;8.23;;;23.00;68.80;;;;;;5031841;28;20105;-73
2023/06/19 04:24:30;;;;;;;10.77;7.90;;;23.00;69.00;;;;;;5031573;28;20547;-73
2023/06/19 04:26:56;;;;;;;15.88;7.75;;;23.10;68.70;;;;;;5031624;28;20117;-73
2023/06/19 04:29:22;;;;;;;10.32;7.53;;;23.10;68.70;;;;;;5031514;28;20033;-73
2023/06/19 04:31:47;;;;;;;14.27;8.52;;;23.20;68.80;;;;;;5031591;28;20065;-72
2023/06/19 04:34:21;;;;;;;11.10;8.40;;;23.20;68.60;;;;;;5031444;28;20109;-72
2023/06/19 04:36:49;;;;;;;15.35;8.93;;;23.20;68.10;;;;;;5032087;28;20040;-73
2023/06/19 04:39:15;;;;;;;13.48;8.48;;;23.20;68.20;;;;;;5032036;28;20034;-74
2023/06/19 04:41:44;;;;;;;9.27;7.15;;;23.20;68.10;;;;;;5033118;28;20033;-73
2023/06/19 04:44:12;;;;;;;12.77;7.93;;;23.20;68.00;;;;;;5031057;28;20108;-73
2023/06/19 04:46:38;;;;;;;10.10;7.40;;;23.30;68.60;;;;;;5013548;28;20045;-74
2023/06/19 04:49:05;;;;;;;12.45;8.48;;;23.30;68.00;;;;;;5031739;28;20432;-74
2023/06/19 04:51:32;;;;;;;10.82;7.65;;;23.40;67.90;;;;;;5030846;28;20061;-73
2023/06/19 04:53:58;;;;;;;14.55;8.57;;;23.40;67.80;;;;;;5031003;28;20040;-73
2023/06/19 04:56:24;;;;;;;10.77;7.80;;;23.30;67.90;;;;;;5031863;28;20053;-73
2023/06/19 04:58:51;;;;;;;12.18;7.25;;;23.30;68.00;;;;;;5034781;28;20078;-73
2023/06/19 05:01:17;;;;;;;10.35;7.97;;;23.40;67.90;;;;;;5034776;28;20036;-74
2023/06/19 05:03:45;;;;;;;11.48;7.60;;;23.40;67.70;;;;;;5034759;28;20025;-72
2023/06/19 05:06:12;;;;;;;14.05;7.93;;;23.40;67.50;;;;;;5034659;28;20064;-73
2023/06/19 05:08:37;;;;;;;14.65;7.32;;;23.50;67.40;;;;;;5034414;28;20044;-72
2023/06/19 05:11:03;;;;;;;12.52;7.53;;;23.60;67.00;;;;;;5034317;28;20038;-74
2023/06/19 05:13:29;;;;;;;12.45;7.53;;;23.80;67.00;;;;;;5034434;28;20491;-73
2023/06/19 05:15:55;;;;;;;11.27;7.10;;;24.00;66.70;;;;;;5059113;28;20041;-74
2023/06/19 05:18:22;;;;;;;11.38;7.68;;;24.10;66.30;;;;;;5075128;28;20108;-75
2023/06/19 05:20:47;;;;;;;10.48;6.45;;;24.30;66.50;;;;;;5055964;28;20043;-71
2023/06/19 05:23:13;;;;;;;12.60;7.38;;;24.70;65.80;;;;;;5074436;28;20028;-77
2023/06/19 05:25:39;;;;;;;10.88;7.32;;;25.10;64.50;;;;;;5074332;28;20065;-76
2023/06/19 05:28:05;;;;;;;10.88;7.93;;;25.50;63.60;;;;;;5073302;28;20501;-75
2023/06/19 05:30:30;;;;;;;12.82;7.68;;;25.90;62.90;;;;;;5039144;28;20128;-78
2023/06/19 05:32:56;;;;;;;14.45;8.73;;;26.00;62.50;;;;;;5039943;28;20025;-80
2023/06/19 05:35:22;;;;;;;11.98;7.88;;;26.30;61.80;;;;;;5054372;28;20482;-79
2023/06/19 05:37:47;;;;;;;10.88;7.53;;;26.50;61.50;;;;;;5048462;28;20043;-80
2023/06/19 05:40:13;;;;;;;10.80;7.60;;;26.70;61.90;;;;;;5054459;28;20048;-80
2023/06/19 05:42:40;;;;;;;11.80;7.63;;;27.00;60.50;;;;;;5054731;28;20136;-80
2023/06/19 05:45:07;;;;;;;10.70;7.57;;;27.40;59.90;;;;;;5047922;28;20084;-77
2023/06/19 05:47:32;;;;;;;15.43;7.72;;;27.70;59.70;;;;;;5027332;28;20042;-77
2023/06/19 05:49:58;;;;;;;11.07;7.28;;;27.90;58.70;;;;;;5053802;28;20371;-77
2023/06/19 05:52:24;;;;;;;10.88;7.47;;;28.10;58.10;;;;;;5054144;28;20044;-78
2023/06/19 05:54:50;;;;;;;13.25;7.57;;;28.50;57.60;;;;;;5053905;28;20471;-78
2023/06/19 05:57:20;;;;;;;11.05;7.90;;;28.60;56.90;;;;;;5053684;28;20033;-78
2023/06/19 05:59:49;;;;;;;12.20;7.53;;;28.80;56.40;;;;;;5053307;28;20487;-79
2023/06/19 06:02:15;;;;;;;12.25;7.25;;;28.80;56.40;;;;;;5054168;28;20033;-80
2023/06/19 06:04:41;;;;;;;10.05;7.25;;;28.80;55.80;;;;;;5054291;28;20114;-79
2023/06/19 06:07:07;;;;;;;16.98;7.35;;;29.00;55.70;;;;;;5053329;28;20063;-75
2023/06/19 06:09:33;;;;;;;13.13;6.78;;;29.10;55.50;;;;;;5036757;28;20115;-78
2023/06/19 06:12:00;;;;;;;12.07;6.90;;;29.20;55.00;;;;;;5063016;28;20033;-77
2023/06/19 06:14:26;;;;;;;10.85;6.55;;;29.20;54.50;;;;;;5053711;28;20123;-75
2023/06/19 06:16:52;;;;;;;11.80;6.55;;;29.20;54.40;;;;;;5053513;28;20347;-78
2023/06/19 06:19:22;;;;;;;14.43;7.20;;;29.30;55.10;;;;;;5053998;28;20033;-76
2023/06/19 06:21:48;;;;;;;10.88;6.50;;;29.60;54.20;;;;;;5053132;28;20032;-77
2023/06/19 06:24:14;;;;;;;10.15;6.13;;;29.60;53.70;;;;;;5053624;28;20037;-78
2023/06/19 06:26:40;;;;;;;11.48;6.70;;;29.60;53.80;;;;;;5053689;28;20406;-77
2023/06/19 06:29:05;;;;;;;12.98;6.80;;;29.70;53.50;;;;;;5053556;28;20112;-78
2023/06/19 06:31:31;;;;;;;15.38;6.75;;;29.60;53.40;;;;;;5039906;28;20037;-77
2023/06/19 06:33:56;;;;;;;8.93;6.30;;;29.60;53.30;;;;;;5033744;28;20072;-78
2023/06/19 06:36:22;;;;;;;8.65;6.10;;;29.60;53.50;;;;;;5033270;28;20484;-78
2023/06/19 06:38:48;;;;;;;14.27;6.70;;;29.60;53.40;;;;;;5035494;28;20562;-78
2023/06/19 06:41:13;;;;;;;14.95;7.18;;;29.70;53.30;;;;;;5032981;28;20510;-79
2023/06/19 06:43:42;;;;;;;8.27;6.50;;;29.90;53.20;;;;;;5032718;28;20040;-77
2023/06/19 06:46:08;;;;;;;13.85;7.10;;;30.00;52.60;;;;;;5033215;28;20132;-78
2023/06/19 06:48:34;;;;;;;13.45;7.20;;;30.00;52.50;;;;;;5015488;28;20030;-78
2023/06/19 06:51:01;;;;;;;11.93;7.03;;;30.20;52.50;;;;;;5032561;28;20115;-76
2023/06/19 06:53:32;;;;;;;22.17;8.88;;;30.30;52.00;;;;;;5050118;28;20047;-74
2023/06/19 06:55:59;;;;;;;17.92;7.32;;;30.40;52.20;;;;;;5051982;28;20057;-75
2023/06/19 06:58:25;;;;;;;15.25;7.20;;;30.40;52.00;;;;;;5033672;28;20073;-74
2023/06/19 07:00:51;;;;;;;18.25;7.20;;;30.40;51.70;;;;;;5032111;28;20034;-75
2023/06/19 07:03:18;;;;;;;12.23;6.63;;;30.50;51.70;;;;;;5031285;28;20479;-74
2023/06/19 07:05:44;;;;;;;15.40;6.88;;;30.30;51.50;;;;;;5032200;28;20072;-76
2023/06/19 07:08:10;;;;;;;12.63;6.85;;;30.20;51.80;;;;;;5031946;28;20061;-75
2023/06/19 07:10:35;;;;;;;16.35;6.68;;;30.30;51.30;;;;;;5032338;28;20037;-74
2023/06/19 07:13:01;;;;;;;20.30;6.20;;;30.30;51.50;;;;;;5032124;28;20048;-75
2023/06/19 07:15:26;;;;;;;12.57;6.50;;;30.30;51.10;;;;;;5032213;28;20060;-75
2023/06/19 07:17:52;;;;;;;12.57;6.80;;;30.50;51.10;;;;;;5031972;28;20427;-76
2023/06/19 07:20:18;;;;;;;15.60;6.40;;;30.50;51.20;;;;;;5031173;28;20116;-75
2023/06/19 07:22:45;;;;;;;16.48;7.45;;;30.60;50.90;;;;;;5031840;28;20037;-74
2023/06/19 07:25:11;;;;;;;16.00;7.85;;;30.60;50.90;;;;;;5032010;28;20045;-75
2023/06/19 07:27:38;;;;;;;19.05;7.28;;;30.80;51.20;;;;;;5032460;28;20030;-75
2023/06/19 07:30:04;;;;;;;20.23;7.05;;;30.90;50.60;;;;;;5032160;28;20037;-74
2023/06/19 07:32:30;;;;;;;12.60;6.90;;;30.60;50.00;;;;;;5032216;28;20030;-75
2023/06/19 07:34:55;;;;;;;13.18;6.47;;;30.80;50.50;;;;;;5032069;28;20048;-74
2023/06/19 07:37:21;;;;;;;20.52;7.15;;;31.00;50.40;;;;;;5032187;28;20037;-76
2023/06/19 07:39:49;;;;;;;13.38;6.35;;;31.20;50.20;;;;;;5032189;28;20402;-75
2023/06/19 07:42:15;;;;;;;14.55;6.20;;;31.40;50.00;;;;;;5031934;28;20479;-76
2023/06/19 07:44:42;;;;;;;13.25;6.47;;;31.40;49.70;;;;;;5032056;28;20246;-75
2023/06/19 07:47:08;;;;;;;9.20;5.88;;;31.30;49.70;;;;;;5031973;28;20041;-75
2023/06/19 07:49:34;;;;;;;11.25;6.40;;;31.30;49.40;;;;;;5031760;28;20057;-75
2023/06/19 07:52:00;;;;;;;13.55;6.95;;;31.30;49.40;;;;;;5032036;28;20041;-73
2023/06/19 07:54:26;;;;;;;10.38;5.80;;;31.30;50.10;;;;;;5031833;28;20033;-75
2023/06/19 07:56:52;;;;;;;12.32;6.20;;;31.40;49.30;;;;;;5031955;28;20076;-75
2023/06/19 07:59:18;;;;;;;8.77;6.00;;;31.30;49.00;;;;;;5014024;28;20033;-77
2023/06/19 08:01:44;;;;;;;12.13;6.00;;;31.30;48.90;;;;;;5031090;28;20515;-74
2023/06/19 08:04:09;;;;;;;10.75;6.85;;;31.10;49.00;;;;;;5032097;28;20040;-75
2023/06/19 08:06:35;;;;;;;12.18;7.15;;;31.10;49.60;;;;;;5032238;28;20049;-75
2023/06/19 08:09:01;;;;;;;13.93;6.38;;;31.10;49.60;;;;;;5031953;28;20506;-75
2023/06/19 08:11:27;;;;;;;11.73;6.18;;;31.20;49.50;;;;;;5031689;28;20042;-75
2023/06/19 08:13:53;;;;;;;12.73;5.97;;;31.10;49.20;;;;;;5013696;28;20117;-75
2023/06/19 08:16:19;;;;;;;10.55;5.68;;;31.00;48.90;;;;;;5031562;28;20037;-76
2023/06/19 08:18:45;;;;;;;14.48;6.65;;;31.00;49.10;;;;;;5031672;28;20026;-76
2023/06/19 08:21:11;;;;;;;14.07;6.50;;;30.90;49.10;;;;;;5031758;28;20045;-75
2023/06/19 08:23:43;;;;;;;11.40;6.07;;;30.80;49.00;;;;;;5014019;28;20034;-76
2023/06/19 08:26:09;;;;;;;10.00;5.53;;;30.70;47.70;;;;;;5031574;28;20566;-75
2023/06/19 08:28:34;;;;;;;8.68;5.78;;;30.60;49.00;;;;;;5031643;28;20060;-76
2023/06/19 08:31:00;;;;;;;14.65;6.13;;;30.50;49.10;;;;;;5033804;28;20073;-75
2023/06/19 08:33:26;;;;;;;11.60;7.47;;;30.40;49.10;;;;;;5035658;28;20040;-75
2023/06/19 08:35:52;;;;;;;11.30;5.07;;;30.40;48.90;;;;;;5035408;28;20413;-75
2023/06/19 08:38:18;;;;;;;13.10;6.15;;;30.30;48.00;;;;;;5017606;28;20075;-74
2023/06/19 08:40:44;;;;;;;8.48;6.20;;;30.30;48.60;;;;;;5017840;28;20128;-75
2023/06/19 08:43:10;;;;;;;15.38;6.22;;;30.20;47.70;;;;;;5035439;28;20118;-76
2023/06/19 08:45:36;;;;;;;8.38;5.50;;;30.20;47.70;;;;;;5035170;28;20060;-74
2023/06/19 08:48:03;;;;;;;7.75;4.90;;;30.20;47.70;;;;;;5035296;28;20067;-75
2023/06/19 08:50:30;;;;;;;8.90;4.80;;;30.20;45.90;;;;;;5037042;28;20033;-76
2023/06/19 08:52:56;;;;;;;8.27;5.38;;;30.10;46.40;;;;;;5035075;28;20084;-74
2023/06/19 08:55:22;;;;;;;9.30;5.50;;;30.00;46.70;;;;;;5035228;28;20042;-74
2023/06/19 08:57:49;;;;;;;17.98;5.82;;;30.00;46.80;;;;;;5035108;28;20198;-74
2023/06/19 09:00:25;;;;;;;10.15;4.95;;;30.10;46.50;;;;;;5035089;28;20041;-74
2023/06/19 09:02:50;;;;;;;8.70;4.90;;;30.10;45.40;;;;;;5034993;28;20184;-75
2023/06/19 09:05:17;;;;;;;9.93;5.10;;;30.10;44.90;;;;;;5035086;28;20129;-74
2023/06/19 09:08:00;;;;;;;7.78;5.10;;;30.10;45.10;;;;;;5035075;28;20033;-76
2023/06/19 09:10:26;;;;;;;7.37;4.53;;;30.20;43.80;;;;;;5034975;28;20022;-76
2023/06/19 09:13:00;;;;;;;10.13;4.72;;;30.20;45.10;;;;;;5035226;28;20044;-76
2023/06/19 09:15:32;;;;;;;9.02;4.40;;;30.20;44.70;;;;;;5035089;28;20104;-75
2023/06/19 09:18:09;;;;;;;8.57;4.90;;;30.20;44.00;;;;;;5034850;28;20116;-76
2023/06/19 09:20:43;;;;;;;7.90;4.63;;;30.20;43.20;;;;;;5016893;28;20037;-75
2023/06/19 09:23:11;;;;;;;8.40;5.25;;;30.20;44.30;;;;;;5034729;28;20356;-76
2023/06/19 09:25:51;;;;;;;9.40;5.30;;;30.30;44.40;;;;;;5034772;28;20380;-76
2023/06/19 09:28:24;;;;;;;10.75;4.70;;;30.30;44.60;;;;;;5017158;28;20092;-77
2023/06/19 09:31:02;;;;;;;8.23;5.22;;;30.40;44.10;;;;;;5034773;28;20033;-76
2023/06/19 09:33:29;;;;;;;7.30;5.00;;;30.40;44.40;;;;;;5017089;28;20033;-75
2023/06/19 09:35:56;;;;;;;10.05;5.50;;;30.30;43.90;;;;;;5034839;28;20057;-75
2023/06/19 09:38:27;;;;;;;9.70;5.18;;;30.30;43.90;;;;;;5035309;28;20040;-77
2023/06/19 09:40:53;;;;;;;9.98;5.95;;;30.40;44.50;;;;;;5034506;28;20035;-75
2023/06/19 09:43:24;;;;;;;11.65;5.90;;;30.50;45.20;;;;;;5033456;28;20423;-77
2023/06/19 09:45:54;;;;;;;6.22;4.68;;;30.50;45.60;;;;;;5034512;28;20069;-76
2023/06/19 09:48:22;;;;;;;11.18;5.05;;;30.50;43.70;;;;;;5034712;28;20040;-77
2023/06/19 09:50:54;;;;;;;8.93;4.97;;;30.50;43.70;;;;;;5016526;28;20041;-76
2023/06/19 09:53:20;;;;;;;9.68;5.15;;;30.60;43.50;;;;;;5034387;28;20491;-77
2023/06/19 09:55:50;;;;;;;8.88;4.97;;;30.70;43.60;;;;;;5034162;28;20136;-75
2023/06/19 09:58:19;;;;;;;7.00;4.93;;;30.80;43.70;;;;;;5034351;28;20029;-74
2023/06/19 10:00:47;;;;;;;8.50;4.97;;;30.90;42.30;;;;;;5034624;28;20044;-76
2023/06/19 10:03:13;;;;;;;7.25;5.28;;;31.00;42.60;;;;;;5034496;28;20038;-76
2023/06/19 10:05:40;;;;;;;9.20;6.07;;;31.00;42.00;;;;;;5034053;28;20045;-76
2023/06/19 10:08:08;;;;;;;8.75;5.40;;;30.90;42.70;;;;;;5034010;28;20030;-75
2023/06/19 10:10:34;;;;;;;8.95;5.72;;;31.00;43.20;;;;;;5033868;28;20414;-75
2023/06/19 10:13:13;;;;;;;8.40;5.22;;;30.90;42.60;;;;;;5034132;28;20035;-76
2023/06/19 10:15:44;;;;;;;9.45;5.60;;;31.00;42.40;;;;;;5034077;28;20034;-75
2023/06/19 10:18:16;;;;;;;8.02;5.30;;;31.00;43.40;;;;;;5033927;28;20030;-76
2023/06/19 10:20:43;;;;;;;6.70;4.68;;;31.10;43.40;;;;;;5033762;28;20073;-76
2023/06/19 10:23:11;;;;;;;8.90;5.28;;;31.20;43.30;;;;;;5033808;28;20100;-74
2023/06/19 10:25:43;;;;;;;8.77;5.63;;;31.30;42.90;;;;;;5033461;28;20384;-75
2023/06/19 10:28:18;;;;;;;9.18;6.75;;;31.30;43.10;;;;;;5033480;28;20107;-75
2023/06/19 10:30:44;;;;;;;10.10;5.93;;;31.30;42.70;;;;;;5033255;28;20029;-76
2023/06/19 10:33:09;;;;;;;7.05;5.60;;;31.30;42.70;;;;;;5033271;28;20030;-76
2023/06/19 10:35:39;;;;;;;8.75;5.30;;;31.40;42.90;;;;;;5033533;28;20068;-75
2023/06/19 10:38:06;;;;;;;8.32;5.20;;;31.50;42.40;;;;;;5033472;28;20120;-75
2023/06/19 10:40:31;;;;;;;8.80;5.68;;;31.60;42.20;;;;;;5033448;28;20113;-74
2023/06/19 10:42:58;;;;;;;10.90;6.13;;;31.70;42.30;;;;;;5033212;28;20057;-77
2023/06/19 10:45:28;;;;;;;8.75;5.72;;;31.80;42.40;;;;;;5015566;28;20045;-76
2023/06/19 10:47:55;;;;;;;7.57;5.07;;;31.90;41.70;;;;;;5033432;28;20037;-75
2023/06/19 10:50:21;;;;;;;10.25;5.35;;;32.00;41.70;;;;;;5033318;28;20029;-75
2023/06/19 10:52:48;;;;;;;9.45;5.10;;;32.10;41.40;;;;;;5033337;28;20091;-76
2023/06/19 10:55:15;;;;;;;8.70;5.82;;;32.00;41.60;;;;;;5033034;28;20053;-76
2023/06/19 10:57:48;;;;;;;8.77;6.88;;;32.10;42.10;;;;;;5033156;28;20491;-75
2023/06/19 11:00:31;;;;;;;10.55;6.35;;;32.00;44.30;;;;;;5033496;28;20116;-77
2023/06/19 11:02:57;;;;;;;10.95;6.45;;;31.90;45.50;;;;;;5033321;28;20502;-75
2023/06/19 11:05:26;;;;;;;10.98;6.55;;;31.90;45.80;;;;;;5033077;28;20042;-76
2023/06/19 11:07:57;;;;;;;9.65;6.40;;;31.90;46.90;;;;;;5033361;28;20041;-75
2023/06/19 11:10:25;;;;;;;11.38;6.70;;;31.80;47.00;;;;;;5032829;28;20034;-73
2023/06/19 11:12:57;;;;;;;8.02;5.97;;;32.00;47.40;;;;;;5032874;28;20113;-76
2023/06/19 11:15:33;;;;;;;9.50;6.25;;;32.10;47.30;;;;;;5032855;28;20037;-75
2023/06/19 11:18:01;;;;;;;11.00;6.43;;;32.10;47.00;;;;;;5032600;28;20480;-77
2023/06/19 11:20:27;;;;;;;13.75;6.57;;;32.20;47.00;;;;;;5032818;28;20112;-75
2023/06/19 11:22:58;;;;;;;8.23;6.03;;;32.20;46.80;;;;;;5032814;28;20021;-76
2023/06/19 11:25:34;;;;;;;10.25;6.00;;;32.20;46.70;;;;;;5032744;28;20037;-74
2023/06/19 11:28:00;;;;;;;12.25;6.35;;;32.30;45.90;;;;;;5032589;28;20037;-75
2023/06/19 11:30:33;;;;;;;11.75;6.28;;;32.30;45.70;;;;;;5032692;28;20107;-74
2023/06/19 11:32:59;;;;;;;;;;;32.40;46.20;;;;;;5032791;28;20111;-76
2023/06/19 11:35:33;;;;;;;9.88;6.70;;;32.40;46.20;;;;;;5032597;28;19955;-75
2023/06/19 11:37:59;;;;;;;6.80;6.05;;;32.40;46.60;;;;;;5032417;28;20044;-74
2023/06/19 11:40:25;;;;;;;8.50;6.13;;;32.30;45.90;;;;;;5032455;28;20029;-76
2023/06/19 11:42:54;;;;;;;15.43;6.70;;;32.30;45.70;;;;;;5032377;28;20116;-74
2023/06/19 11:45:21;;;;;;;11.70;6.95;;;32.30;45.90;;;;;;5032326;28;20045;-74
2023/06/19 11:47:47;;;;;;;13.85;6.30;;;32.40;46.20;;;;;;5031994;28;20038;-73
2023/06/19 11:50:15;;;;;;;10.30;6.28;;;32.40;46.70;;;;;;5032226;28;20394;-76
2023/06/19 11:52:46;;;;;;;10.35;6.20;;;32.40;46.60;;;;;;5032449;28;20367;-74
2023/06/19 11:55:13;;;;;;;7.88;5.70;;;32.30;47.30;;;;;;5032071;28;20056;-75
2023/06/19 11:57:39;;;;;;;9.98;6.03;;;32.30;47.30;;;;;;5032128;28;20507;-75
2023/06/19 12:00:15;;;;;;;10.23;6.45;;;32.20;47.60;;;;;;5032255;28;20083;-75
2023/06/19 12:02:40;;;;;;;9.68;6.47;;;32.20;47.50;;;;;;5032593;28;20050;-77
2023/06/19 12:05:07;;;;;;;9.77;6.43;;;32.20;47.60;;;;;;5031535;28;20033;-76
2023/06/19 12:07:33;;;;;;;15.32;7.07;;;32.30;47.40;;;;;;5032169;28;20084;-76
2023/06/19 12:09:58;;;;;;;14.07;5.97;;;32.20;47.60;;;;;;5031926;28;20388;-76
2023/06/19 12:12:25;;;;;;;12.93;6.13;;;32.20;47.80;;;;;;5031956;28;20033;-76
2023/06/19 12:14:51;;;;;;;13.98;6.32;;;32.20;47.30;;;;;;5032080;28;20079;-75
2023/06/19 12:17:17;;;;;;;12.75;6.13;;;32.20;47.50;;;;;;5031744;28;20034;-75
2023/06/19 12:19:42;;;;;;;11.10;6.18;;;32.20;47.70;;;;;;5031892;28;20030;-74
2023/06/19 12:22:08;;;;;;;7.95;5.95;;;32.20;47.60;;;;;;5031613;28;20032;-74
2023/06/19 12:24:34;;;;;;;9.57;5.47;;;32.20;47.10;;;;;;5031902;28;20042;-74
2023/06/19 12:26:59;;;;;;;9.10;5.47;;;32.20;47.30;;;;;;5032016;28;20195;-75
2023/06/19 12:29:26;;;;;;;8.52;5.10;;;32.20;47.10;;;;;;5031944;28;20471;-75
2023/06/19 12:31:51;;;;;;;9.20;5.53;;;32.20;46.70;;;;;;5014066;28;20053;-75
2023/06/19 12:34:17;;;;;;;7.43;5.15;;;32.20;47.00;;;;;;5032041;28;20028;-76
2023/06/19 12:36:43;;;;;;;7.28;5.45;;;32.20;47.10;;;;;;5031928;28;20049;-76
2023/06/19 12:39:16;;;;;;;11.25;5.30;;;32.20;47.30;;;;;;5032080;28;20415;-76
2023/06/19 12:41:41;;;;;;;8.87;5.27;;;32.20;47.60;;;;;;5031934;28;20053;-71